sensor_id;sensor_type;location;lat;lon;timestamp;pressure;altitude;pressure_sealevel;temperature;humidity
71043;BME280;58696;52.134;5.500;2023-05-23T00:01:06;102011.03;;;14.43;86.06
71043;BME280;58696;52.134;5.500;2023-05-23T00:03:35;102006.03;;;14.41;86.34
71043;BME280;58696;52.134;5.500;2023-05-23T00:06:05;102009.25;;;14.43;86.13
71043;BME280;58696;52.134;5.500;2023-05-23T00:08:34;102008.00;;;14.39;86.40
71043;BME280;58696;52.134;5.500;2023-05-23T00:11:01;102014.75;;;14.40;86.36
71043;BME280;58696;52.134;5.500;2023-05-23T00:13:27;102008.97;;;14.38;86.56
71043;BME280;58696;52.134;5.500;2023-05-23T00:15:56;102008.19;;;14.38;86.84
71043;BME280;58696;52.134;5.500;2023-05-23T00:18:25;102006.75;;;14.35;86.72
71043;BME280;58696;52.134;5.500;2023-05-23T00:20:51;102008.69;;;14.33;86.78
71043;BME280;58696;52.134;5.500;2023-05-23T00:23:18;102014.06;;;14.32;87.16
71043;BME280;58696;52.134;5.500;2023-05-23T00:25:46;102018.59;;;14.30;86.98
71043;BME280;58696;52.134;5.500;2023-05-23T00:28:23;102023.34;;;14.26;87.78
71043;BME280;58696;52.134;5.500;2023-05-23T00:30:51;102021.00;;;14.16;87.83
71043;BME280;58696;52.134;5.500;2023-05-23T00:33:20;102028.13;;;14.14;87.92
71043;BME280;58696;52.134;5.500;2023-05-23T00:35:47;102028.19;;;14.06;87.98
71043;BME280;58696;52.134;5.500;2023-05-23T00:38:17;102029.50;;;14.02;88.35
71043;BME280;58696;52.134;5.500;2023-05-23T00:40:43;102037.63;;;13.99;88.25
71043;BME280;58696;52.134;5.500;2023-05-23T00:43:13;102033.97;;;13.93;88.33
71043;BME280;58696;52.134;5.500;2023-05-23T00:45:40;102038.34;;;13.93;88.55
71043;BME280;58696;52.134;5.500;2023-05-23T00:48:06;102037.06;;;13.89;88.28
71043;BME280;58696;52.134;5.500;2023-05-23T00:50:35;102037.41;;;13.86;88.58
71043;BME280;58696;52.134;5.500;2023-05-23T00:53:04;102035.38;;;13.81;88.48
71043;BME280;58696;52.134;5.500;2023-05-23T00:55:31;102039.56;;;13.82;88.35
71043;BME280;58696;52.134;5.500;2023-05-23T00:58:00;102046.66;;;13.80;88.72
71043;BME280;58696;52.134;5.500;2023-05-23T01:00:27;102042.94;;;13.83;88.50
71043;BME280;58696;52.134;5.500;2023-05-23T01:02:54;102043.28;;;13.80;88.39
71043;BME280;58696;52.134;5.500;2023-05-23T01:05:23;102045.72;;;13.81;88.82
71043;BME280;58696;52.134;5.500;2023-05-23T01:07:53;102047.47;;;13.81;88.74
71043;BME280;58696;52.134;5.500;2023-05-23T01:10:24;102039.72;;;13.81;88.85
71043;BME280;58696;52.134;5.500;2023-05-23T01:18:20;102036.78;;;13.84;89.09
71043;BME280;58696;52.134;5.500;2023-05-23T01:20:53;102043.41;;;13.86;89.17
71043;BME280;58696;52.134;5.500;2023-05-23T01:28:30;102035.19;;;13.83;89.42
71043;BME280;58696;52.134;5.500;2023-05-23T01:30:57;102037.41;;;13.86;89.50
71043;BME280;58696;52.134;5.500;2023-05-23T01:33:27;102043.75;;;13.83;89.50
71043;BME280;58696;52.134;5.500;2023-05-23T01:35:59;102038.91;;;13.80;89.55
71043;BME280;58696;52.134;5.500;2023-05-23T01:38:27;102038.28;;;13.78;89.62
71043;BME280;58696;52.134;5.500;2023-05-23T01:40:53;102029.72;;;13.78;89.77
71043;BME280;58696;52.134;5.500;2023-05-23T01:43:26;102033.75;;;13.80;89.44
71043;BME280;58696;52.134;5.500;2023-05-23T01:45:56;102033.75;;;13.80;89.65
71043;BME280;58696;52.134;5.500;2023-05-23T01:48:26;102046.66;;;13.80;89.59
71043;BME280;58696;52.134;5.500;2023-05-23T01:50:57;102045.84;;;13.80;89.51
71043;BME280;58696;52.134;5.500;2023-05-23T01:53:24;102043.28;;;13.80;89.66
71043;BME280;58696;52.134;5.500;2023-05-23T01:55:51;102051.19;;;13.78;89.73
71043;BME280;58696;52.134;5.500;2023-05-23T01:58:19;102048.16;;;13.75;89.78
71043;BME280;58696;52.134;5.500;2023-05-23T02:00:48;102056.69;;;13.75;89.75
71043;BME280;58696;52.134;5.500;2023-05-23T02:03:15;102051.28;;;13.70;89.77
71043;BME280;58696;52.134;5.500;2023-05-23T02:05:42;102059.19;;;13.68;89.67
71043;BME280;58696;52.134;5.500;2023-05-23T02:08:11;102058.56;;;13.66;89.66
71043;BME280;58696;52.134;5.500;2023-05-23T02:10:45;102063.72;;;13.66;89.78
71043;BME280;58696;52.134;5.500;2023-05-23T02:13:14;102061.31;;;13.65;89.93
71043;BME280;58696;52.134;5.500;2023-05-23T02:15:40;102063.25;;;13.63;89.80
71043;BME280;58696;52.134;5.500;2023-05-23T02:18:07;102073.78;;;13.61;89.51
71043;BME280;58696;52.134;5.500;2023-05-23T02:20:34;102070.72;;;13.58;89.75
71043;BME280;58696;52.134;5.500;2023-05-23T02:23:03;102061.34;;;13.57;89.87
71043;BME280;58696;52.134;5.500;2023-05-23T02:25:29;102071.88;;;13.55;90.03
71043;BME280;58696;52.134;5.500;2023-05-23T02:27:56;102071.69;;;13.57;89.88
71043;BME280;58696;52.134;5.500;2023-05-23T02:30:30;102076.06;;;13.56;89.77
71043;BME280;58696;52.134;5.500;2023-05-23T02:33:03;102072.50;;;13.57;89.88
71043;BME280;58696;52.134;5.500;2023-05-23T02:35:33;102071.50;;;13.58;89.56
71043;BME280;58696;52.134;5.500;2023-05-23T02:38:01;102083.13;;;13.62;89.40
71043;BME280;58696;52.134;5.500;2023-05-23T02:40:28;102082.31;;;13.62;89.18
71043;BME280;58696;52.134;5.500;2023-05-23T02:42:57;102085.53;;;13.64;89.32
71043;BME280;58696;52.134;5.500;2023-05-23T02:45:28;102077.63;;;13.65;88.79
71043;BME280;58696;52.134;5.500;2023-05-23T02:47:54;102085.19;;;13.67;88.76
71043;BME280;58696;52.134;5.500;2023-05-23T02:50:23;102083.59;;;13.66;88.44
71043;BME280;58696;52.134;5.500;2023-05-23T02:52:50;102083.22;;;13.69;88.48
71043;BME280;58696;52.134;5.500;2023-05-23T02:55:17;102089.06;;;13.71;88.15
71043;BME280;58696;52.134;5.500;2023-05-23T02:57:45;102088.06;;;13.72;88.08
71043;BME280;58696;52.134;5.500;2023-05-23T03:00:12;102091.28;;;13.74;87.98
71043;BME280;58696;52.134;5.500;2023-05-23T03:02:40;102095.03;;;13.72;87.93
71043;BME280;58696;52.134;5.500;2023-05-23T03:05:08;102082.09;;;13.72;88.29
71043;BME280;58696;52.134;5.500;2023-05-23T03:07:39;102092.06;;;13.75;88.02
71043;BME280;58696;52.134;5.500;2023-05-23T03:10:06;102095.63;;;13.74;88.02
71043;BME280;58696;52.134;5.500;2023-05-23T03:12:33;102079.34;;;13.73;88.06
71043;BME280;58696;52.134;5.500;2023-05-23T03:15:02;102090.28;;;13.75;87.99
71043;BME280;58696;52.134;5.500;2023-05-23T03:17:28;102081.75;;;13.75;88.10
71043;BME280;58696;52.134;5.500;2023-05-23T03:19:57;102088.25;;;13.71;87.81
71043;BME280;58696;52.134;5.500;2023-05-23T03:22:26;102088.41;;;13.69;87.91
71043;BME280;58696;52.134;5.500;2023-05-23T03:24:55;102088.75;;;13.66;87.87
71043;BME280;58696;52.134;5.500;2023-05-23T03:27:29;102085.53;;;13.64;88.11
71043;BME280;58696;52.134;5.500;2023-05-23T03:29:55;102092.47;;;13.63;88.09
71043;BME280;58696;52.134;5.500;2023-05-23T03:32:22;102090.56;;;13.57;87.77
71043;BME280;58696;52.134;5.500;2023-05-23T03:34:48;102102.56;;;13.50;87.86
71043;BME280;58696;52.134;5.500;2023-05-23T03:37:15;102093.91;;;13.43;88.08
71043;BME280;58696;52.134;5.500;2023-05-23T03:39:43;102097.78;;;13.39;87.82
71043;BME280;58696;52.134;5.500;2023-05-23T03:42:12;102100.56;;;13.37;88.09
71043;BME280;58696;52.134;5.500;2023-05-23T03:44:44;102109.25;;;13.36;88.20
71043;BME280;58696;52.134;5.500;2023-05-23T03:47:10;102110.03;;;13.37;88.08
71043;BME280;58696;52.134;5.500;2023-05-23T03:49:39;102109.91;;;13.30;87.71
71043;BME280;58696;52.134;5.500;2023-05-23T03:52:06;102120.75;;;13.26;88.12
71043;BME280;58696;52.134;5.500;2023-05-23T03:54:33;102122.53;;;13.25;88.14
71043;BME280;58696;52.134;5.500;2023-05-23T03:57:02;102118.69;;;13.21;88.16
71043;BME280;58696;52.134;5.500;2023-05-23T03:59:31;102123.84;;;13.21;88.35
71043;BME280;58696;52.134;5.500;2023-05-23T04:01:59;102126.56;;;13.20;88.61
71043;BME280;58696;52.134;5.500;2023-05-23T04:04:27;102128.34;;;13.19;88.89
71043;BME280;58696;52.134;5.500;2023-05-23T04:06:57;102131.88;;;13.18;88.83
71043;BME280;58696;52.134;5.500;2023-05-23T04:09:26;102134.66;;;13.16;88.88
71043;BME280;58696;52.134;5.500;2023-05-23T04:11:53;102133.53;;;13.11;88.73
71043;BME280;58696;52.134;5.500;2023-05-23T04:14:19;102136.63;;;13.06;88.93
71043;BME280;58696;52.134;5.500;2023-05-23T04:16:48;102143.56;;;13.06;89.15
71043;BME280;58696;52.134;5.500;2023-05-23T04:19:14;102143.38;;;13.07;89.43
71043;BME280;58696;52.134;5.500;2023-05-23T04:21:43;102148.84;;;13.04;89.30
71043;BME280;58696;52.134;5.500;2023-05-23T04:24:10;102155.97;;;13.02;89.74
71043;BME280;58696;52.134;5.500;2023-05-23T04:26:36;102148.22;;;13.02;89.99
71043;BME280;58696;52.134;5.500;2023-05-23T04:29:03;102158.06;;;12.99;90.16
71043;BME280;58696;52.134;5.500;2023-05-23T04:31:32;102162.91;;;12.94;90.21
71043;BME280;58696;52.134;5.500;2023-05-23T04:33:59;102161.16;;;12.94;90.37
71043;BME280;58696;52.134;5.500;2023-05-23T04:36:29;102162.78;;;12.95;90.43
71043;BME280;58696;52.134;5.500;2023-05-23T04:38:56;102163.25;;;12.90;89.87
71043;BME280;58696;52.134;5.500;2023-05-23T04:41:23;102169.84;;;12.93;89.79
71043;BME280;58696;52.134;5.500;2023-05-23T04:43:52;102168.09;;;12.85;88.73
71043;BME280;58696;52.134;5.500;2023-05-23T04:46:20;102172.63;;;12.83;88.21
71043;BME280;58696;52.134;5.500;2023-05-23T04:48:52;102181.66;;;12.79;88.36
71043;BME280;58696;52.134;5.500;2023-05-23T04:51:20;102184.06;;;12.81;87.96
71043;BME280;58696;52.134;5.500;2023-05-23T04:53:50;102180.53;;;12.82;88.06
71043;BME280;58696;52.134;5.500;2023-05-23T04:56:18;102173.44;;;12.84;87.85
71043;BME280;58696;52.134;5.500;2023-05-23T04:58:49;102186.34;;;12.84;87.85
71043;BME280;58696;52.134;5.500;2023-05-23T05:01:18;102187.47;;;12.81;88.01
71043;BME280;58696;52.134;5.500;2023-05-23T05:03:47;102205.06;;;12.78;87.89
71043;BME280;58696;52.134;5.500;2023-05-23T05:06:16;102200.84;;;12.77;87.13
71043;BME280;58696;52.134;5.500;2023-05-23T05:08:43;102203.28;;;12.70;86.53
71043;BME280;58696;52.134;5.500;2023-05-23T05:11:12;102210.38;;;12.68;86.88
71043;BME280;58696;52.134;5.500;2023-05-23T05:13:39;102216.00;;;12.72;87.01
71043;BME280;58696;52.134;5.500;2023-05-23T05:16:05;102215.06;;;12.73;87.39
71043;BME280;58696;52.134;5.500;2023-05-23T05:18:34;102222.00;;;12.72;86.38
71043;BME280;58696;52.134;5.500;2023-05-23T05:21:05;102225.69;;;12.70;87.01
71043;BME280;58696;52.134;5.500;2023-05-23T05:23:34;102230.66;;;12.71;86.90
71043;BME280;58696;52.134;5.500;2023-05-23T05:26:01;102230.34;;;12.66;86.47
71043;BME280;58696;52.134;5.500;2023-05-23T05:28:28;102242.28;;;12.59;85.88
71043;BME280;58696;52.134;5.500;2023-05-23T05:30:57;102247.91;;;12.54;85.46
71043;BME280;58696;52.134;5.500;2023-05-23T05:33:23;102250.66;;;12.53;84.57
71043;BME280;58696;52.134;5.500;2023-05-23T05:35:50;102250.66;;;12.53;84.17
71043;BME280;58696;52.134;5.500;2023-05-23T05:38:17;102247.28;;;12.52;83.19
71043;BME280;58696;52.134;5.500;2023-05-23T05:40:48;102244.69;;;12.52;82.56
71043;BME280;58696;52.134;5.500;2023-05-23T05:43:22;102256.63;;;12.53;82.35
71043;BME280;58696;52.134;5.500;2023-05-23T05:45:49;102249.38;;;12.57;81.85
71043;BME280;58696;52.134;5.500;2023-05-23T05:48:18;102255.19;;;12.59;79.99
71043;BME280;58696;52.134;5.500;2023-05-23T05:50:44;102269.03;;;12.58;78.01
71043;BME280;58696;52.134;5.500;2023-05-23T05:53:13;102260.84;;;12.62;77.60
71043;BME280;58696;52.134;5.500;2023-05-23T05:55:40;102270.50;;;12.77;77.50
71043;BME280;58696;52.134;5.500;2023-05-23T05:58:06;102267.13;;;12.84;77.79
71043;BME280;58696;52.134;5.500;2023-05-23T06:00:38;102270.97;;;12.97;77.40
71043;BME280;58696;52.134;5.500;2023-05-23T06:03:08;102277.59;;;12.99;76.74
71043;BME280;58696;52.134;5.500;2023-05-23T06:05:37;102282.91;;;12.98;77.07
71043;BME280;58696;52.134;5.500;2023-05-23T06:08:07;102286.63;;;12.95;77.36
71043;BME280;58696;52.134;5.500;2023-05-23T06:10:33;102287.44;;;12.87;77.46
71043;BME280;58696;52.134;5.500;2023-05-23T06:13:02;102290.19;;;12.86;78.09
71043;BME280;58696;52.134;5.500;2023-05-23T06:15:31;102296.31;;;12.85;77.97
71043;BME280;58696;52.134;5.500;2023-05-23T06:18:00;102291.47;;;12.82;77.85
71043;BME280;58696;52.134;5.500;2023-05-23T06:20:26;102292.78;;;12.78;77.74
71043;BME280;58696;52.134;5.500;2023-05-23T06:22:54;102285.97;;;12.77;77.87
71043;BME280;58696;52.134;5.500;2023-05-23T06:25:25;102292.78;;;12.78;77.44
71043;BME280;58696;52.134;5.500;2023-05-23T06:27:52;102294.03;;;12.82;77.13
71043;BME280;58696;52.134;5.500;2023-05-23T06:30:23;102287.13;;;12.74;76.64
71043;BME280;58696;52.134;5.500;2023-05-23T06:32:50;102288.88;;;12.74;76.49
71043;BME280;58696;52.134;5.500;2023-05-23T06:35:16;102281.47;;;12.62;76.59
71043;BME280;58696;52.134;5.500;2023-05-23T06:37:43;102294.34;;;12.62;77.65
71043;BME280;58696;52.134;5.500;2023-05-23T06:40:16;102294.06;;;12.74;77.85
71043;BME280;58696;52.134;5.500;2023-05-23T06:42:45;102295.50;;;12.76;77.74
71043;BME280;58696;52.134;5.500;2023-05-23T06:45:17;102298.41;;;12.73;77.78
71043;BME280;58696;52.134;5.500;2023-05-23T06:47:48;102303.06;;;12.70;78.38
71043;BME280;58696;52.134;5.500;2023-05-23T06:50:16;102303.06;;;12.70;78.81
71043;BME280;58696;52.134;5.500;2023-05-23T06:52:47;102304.66;;;12.71;79.15
71043;BME280;58696;52.134;5.500;2023-05-23T06:55:16;102301.75;;;12.66;78.96
71043;BME280;58696;52.134;5.500;2023-05-23T06:57:45;102306.44;;;12.62;79.45
71043;BME280;58696;52.134;5.500;2023-05-23T07:00:14;102314.50;;;12.59;79.60
71043;BME280;58696;52.134;5.500;2023-05-23T07:02:43;102311.59;;;12.54;79.44
71043;BME280;58696;52.134;5.500;2023-05-23T07:05:11;102320.13;;;12.54;79.83
71043;BME280;58696;52.134;5.500;2023-05-23T07:07:42;102320.47;;;12.51;79.71
71043;BME280;58696;52.134;5.500;2023-05-23T07:10:12;102316.41;;;12.49;79.87
71043;BME280;58696;52.134;5.500;2023-05-23T07:12:39;102317.72;;;12.53;80.14
71043;BME280;58696;52.134;5.500;2023-05-23T07:15:09;102312.38;;;12.54;80.53
71043;BME280;58696;52.134;5.500;2023-05-23T07:17:38;102327.38;;;12.59;80.72
71043;BME280;58696;52.134;5.500;2023-05-23T07:20:10;102325.44;;;12.53;81.21
71043;BME280;58696;52.134;5.500;2023-05-23T07:22:36;102330.09;;;12.49;82.00
71043;BME280;58696;52.134;5.500;2023-05-23T07:25:09;102339.31;;;12.52;81.67
71043;BME280;58696;52.134;5.500;2023-05-23T07:27:40;102330.31;;;12.56;81.28
71043;BME280;58696;52.134;5.500;2023-05-23T07:30:11;102334.97;;;12.60;80.54
71043;BME280;58696;52.134;5.500;2023-05-23T07:32:38;102338.03;;;12.64;80.73
71043;BME280;58696;52.134;5.500;2023-05-23T07:35:05;102344.00;;;12.64;80.46
71043;BME280;58696;52.134;5.500;2023-05-23T07:37:32;102347.72;;;12.62;80.21
71043;BME280;58696;52.134;5.500;2023-05-23T07:40:03;102342.88;;;12.59;80.40
71043;BME280;58696;52.134;5.500;2023-05-23T07:42:29;102354.31;;;12.64;79.90
71043;BME280;58696;52.134;5.500;2023-05-23T07:44:58;102352.88;;;12.62;79.08
71043;BME280;58696;52.134;5.500;2023-05-23T07:47:27;102349.50;;;12.70;75.44
71043;BME280;58696;52.134;5.500;2023-05-23T07:49:54;102348.56;;;12.87;74.15
71043;BME280;58696;52.134;5.500;2023-05-23T07:52:24;102343.91;;;13.07;72.75
71043;BME280;58696;52.134;5.500;2023-05-23T07:54:53;102350.06;;;13.38;71.76
71043;BME280;58696;52.134;5.500;2023-05-23T07:57:21;102344.72;;;13.32;72.23
71043;BME280;58696;52.134;5.500;2023-05-23T07:59:52;102359.06;;;13.18;72.04
71043;BME280;58696;52.134;5.500;2023-05-23T08:02:19;102351.31;;;13.18;72.86
71043;BME280;58696;52.134;5.500;2023-05-23T08:04:50;102363.59;;;13.24;72.87
71043;BME280;58696;52.134;5.500;2023-05-23T08:07:18;102348.75;;;13.34;73.33
71043;BME280;58696;52.134;5.500;2023-05-23T08:09:47;102358.09;;;13.52;70.85
71043;BME280;58696;52.134;5.500;2023-05-23T08:12:14;102358.38;;;13.81;69.91
71043;BME280;58696;52.134;5.500;2023-05-23T08:14:43;102361.91;;;13.88;69.04
71043;BME280;58696;52.134;5.500;2023-05-23T08:17:17;102363.81;;;13.94;69.52
71043;BME280;58696;52.134;5.500;2023-05-23T08:19:49;102368.25;;;14.17;68.16
71043;BME280;58696;52.134;5.500;2023-05-23T08:22:18;102361.94;;;14.59;65.91
71043;BME280;58696;52.134;5.500;2023-05-23T08:24:45;102361.88;;;14.67;64.21
71043;BME280;58696;52.134;5.500;2023-05-23T08:27:14;102364.94;;;14.70;62.99
71043;BME280;58696;52.134;5.500;2023-05-23T08:29:43;102365.22;;;14.98;62.61
71043;BME280;58696;52.134;5.500;2023-05-23T08:32:14;102372.88;;;14.69;61.17
71043;BME280;58696;52.134;5.500;2023-05-23T08:34:41;102374.53;;;14.23;62.61
71043;BME280;58696;52.134;5.500;2023-05-23T08:37:10;102385.41;;;14.10;64.26
71043;BME280;58696;52.134;5.500;2023-05-23T08:39:37;102386.66;;;14.30;64.12
71043;BME280;58696;52.134;5.500;2023-05-23T08:42:03;102392.31;;;14.88;63.80
71043;BME280;58696;52.134;5.500;2023-05-23T08:44:30;102387.63;;;15.52;62.15
71043;BME280;58696;52.134;5.500;2023-05-23T08:47:02;102397.34;;;15.88;60.12
71043;BME280;58696;52.134;5.500;2023-05-23T08:49:33;102393.22;;;15.93;60.07
71043;BME280;58696;52.134;5.500;2023-05-23T08:52:06;102393.94;;;15.72;59.38
71043;BME280;58696;52.134;5.500;2023-05-23T08:54:39;102407.22;;;15.32;60.75
71043;BME280;58696;52.134;5.500;2023-05-23T08:57:13;102399.81;;;15.06;59.64
71043;BME280;58696;52.134;5.500;2023-05-23T08:59:40;102408.81;;;14.64;60.54
71043;BME280;58696;52.134;5.500;2023-05-23T09:02:09;102407.22;;;14.63;60.87
71043;BME280;58696;52.134;5.500;2023-05-23T09:04:38;102406.03;;;14.73;59.25
71043;BME280;58696;52.134;5.500;2023-05-23T09:07:10;102412.75;;;14.43;59.32
71043;BME280;58696;52.134;5.500;2023-05-23T09:09:41;102415.34;;;14.43;60.25
71043;BME280;58696;52.134;5.500;2023-05-23T09:12:08;102413.72;;;14.51;59.90
71043;BME280;58696;52.134;5.500;2023-05-23T09:14:35;102412.22;;;14.87;59.55
71043;BME280;58696;52.134;5.500;2023-05-23T09:17:02;102408.84;;;15.10;59.94
71043;BME280;58696;52.134;5.500;2023-05-23T09:19:30;102415.97;;;15.31;59.43
71043;BME280;58696;52.134;5.500;2023-05-23T09:21:57;102414.06;;;15.47;58.39
71043;BME280;58696;52.134;5.500;2023-05-23T09:24:33;102413.34;;;15.39;58.37
71043;BME280;58696;52.134;5.500;2023-05-23T09:27:01;102418.50;;;15.39;59.39
71043;BME280;58696;52.134;5.500;2023-05-23T09:29:29;102433.78;;;15.34;59.36
71043;BME280;58696;52.134;5.500;2023-05-23T09:32:12;102435.59;;;15.25;61.01
71043;BME280;58696;52.134;5.500;2023-05-23T09:35:05;102429.53;;;15.33;60.35
71043;BME280;58696;52.134;5.500;2023-05-23T09:37:37;102425.22;;;15.48;58.35
71043;BME280;58696;52.134;5.500;2023-05-23T09:40:09;102430.06;;;15.51;59.28
71043;BME280;58696;52.134;5.500;2023-05-23T09:42:43;102428.69;;;15.93;57.46
71043;BME280;58696;52.134;5.500;2023-05-23T09:45:14;102433.97;;;16.44;58.41
71043;BME280;58696;52.134;5.500;2023-05-23T09:47:51;102427.22;;;16.64;55.05
71043;BME280;58696;52.134;5.500;2023-05-23T09:50:19;102429.53;;;16.23;55.02
71043;BME280;58696;52.134;5.500;2023-05-23T09:52:46;102427.44;;;15.74;56.86
71043;BME280;58696;52.134;5.500;2023-05-23T09:55:15;102423.97;;;15.82;56.10
71043;BME280;58696;52.134;5.500;2023-05-23T09:57:42;102433.63;;;16.02;55.45
71043;BME280;58696;52.134;5.500;2023-05-23T10:00:10;102427.00;;;15.85;56.97
71043;BME280;58696;52.134;5.500;2023-05-23T10:08:09;102443.59;;;14.92;60.55
71043;BME280;58696;52.134;5.500;2023-05-23T10:13:27;102447.78;;;15.62;59.79
71043;BME280;58696;52.134;5.500;2023-05-23T10:18:51;102437.47;;;15.77;57.77
71043;BME280;58696;52.134;5.500;2023-05-23T10:21:28;102445.16;;;15.85;60.43
71043;BME280;58696;52.134;5.500;2023-05-23T10:24:00;102443.66;;;16.20;57.67
71043;BME280;58696;52.134;5.500;2023-05-23T10:26:31;102447.94;;;16.13;56.06
71043;BME280;58696;52.134;5.500;2023-05-23T10:29:01;102449.34;;;15.86;56.89
71043;BME280;58696;52.134;5.500;2023-05-23T10:31:28;102460.56;;;16.16;55.74
71043;BME280;58696;52.134;5.500;2023-05-23T10:34:03;102453.47;;;16.40;54.70
71043;BME280;58696;52.134;5.500;2023-05-23T10:42:14;102458.97;;;15.40;60.03
71043;BME280;58696;52.134;5.500;2023-05-23T10:44:44;102458.78;;;15.64;60.37
71043;BME280;58696;52.134;5.500;2023-05-23T10:47:25;102462.13;;;15.73;59.64
71043;BME280;58696;52.134;5.500;2023-05-23T10:49:54;102460.38;;;15.88;58.51
71043;BME280;58696;52.134;5.500;2023-05-23T10:52:23;102467.41;;;15.80;57.51
71043;BME280;58696;52.134;5.500;2023-05-23T10:54:58;102460.38;;;15.88;58.56
71043;BME280;58696;52.134;5.500;2023-05-23T10:57:25;102470.13;;;16.16;60.00
71043;BME280;58696;52.134;5.500;2023-05-23T10:59:57;102464.38;;;15.91;59.22
71043;BME280;58696;52.134;5.500;2023-05-23T11:02:28;102467.41;;;15.80;59.05
71043;BME280;58696;52.134;5.500;2023-05-23T11:07:42;102464.63;;;16.70;61.46
71043;BME280;58696;52.134;5.500;2023-05-23T11:10:09;102470.56;;;16.49;57.76
71043;BME280;58696;52.134;5.500;2023-05-23T11:12:45;102464.66;;;15.96;58.41
71043;BME280;58696;52.134;5.500;2023-05-23T11:15:18;102467.22;;;15.66;59.37
71043;BME280;58696;52.134;5.500;2023-05-23T11:17:56;102462.69;;;16.13;56.01
71043;BME280;58696;52.134;5.500;2023-05-23T11:20:25;102458.72;;;15.72;56.53
71043;BME280;58696;52.134;5.500;2023-05-23T11:22:58;102469.75;;;15.89;58.27
71043;BME280;58696;52.134;5.500;2023-05-23T11:25:47;102468.53;;;16.15;56.90
71043;BME280;58696;52.134;5.500;2023-05-23T11:28:14;102464.94;;;16.16;56.21
71043;BME280;58696;52.134;5.500;2023-05-23T11:30:42;102461.63;;;16.22;55.31
71043;BME280;58696;52.134;5.500;2023-05-23T11:33:14;102474.88;;;16.12;56.00
71043;BME280;58696;52.134;5.500;2023-05-23T11:35:43;102470.38;;;15.91;57.08
71043;BME280;58696;52.134;5.500;2023-05-23T11:38:14;102471.44;;;15.82;56.92
71043;BME280;58696;52.134;5.500;2023-05-23T11:40:44;102473.47;;;15.72;57.26
71043;BME280;58696;52.134;5.500;2023-05-23T11:43:14;102475.63;;;15.60;58.09
71043;BME280;58696;52.134;5.500;2023-05-23T11:45:43;102479.38;;;15.81;57.00
71043;BME280;58696;52.134;5.500;2023-05-23T11:48:15;102481.81;;;15.82;58.07
71043;BME280;58696;52.134;5.500;2023-05-23T11:50:52;102483.50;;;15.75;59.26
71043;BME280;58696;52.134;5.500;2023-05-23T11:53:21;102483.91;;;15.64;58.33
71043;BME280;58696;52.134;5.500;2023-05-23T11:55:52;102475.91;;;15.50;59.51
71043;BME280;58696;52.134;5.500;2023-05-23T11:58:28;102482.59;;;15.60;58.92
71043;BME280;58696;52.134;5.500;2023-05-23T12:01:07;102489.66;;;15.51;56.98
71043;BME280;58696;52.134;5.500;2023-05-23T12:06:20;102494.88;;;15.20;56.73
71043;BME280;58696;52.134;5.500;2023-05-23T12:08:58;102487.34;;;15.79;56.08
71043;BME280;58696;52.134;5.500;2023-05-23T12:11:32;102485.16;;;16.06;56.51
71043;BME280;58696;52.134;5.500;2023-05-23T12:14:00;102490.19;;;16.37;56.76
71043;BME280;58696;52.134;5.500;2023-05-23T12:16:30;102488.47;;;16.59;54.59
71043;BME280;58696;52.134;5.500;2023-05-23T12:18:57;102489.16;;;16.52;52.75
71043;BME280;58696;52.134;5.500;2023-05-23T12:21:25;102486.81;;;16.87;51.35
71043;BME280;58696;52.134;5.500;2023-05-23T12:23:52;102482.31;;;16.96;49.53
71043;BME280;58696;52.134;5.500;2023-05-23T12:26:21;102491.97;;;16.21;51.12
71043;BME280;58696;52.134;5.500;2023-05-23T12:28:48;102491.03;;;16.14;53.38
71043;BME280;58696;52.134;5.500;2023-05-23T12:33:43;102494.13;;;15.80;54.58
71043;BME280;58696;52.134;5.500;2023-05-23T12:36:11;102496.34;;;16.06;55.26
71043;BME280;58696;52.134;5.500;2023-05-23T12:38:38;102497.78;;;16.53;56.22
71043;BME280;58696;52.134;5.500;2023-05-23T12:41:07;102493.75;;;17.01;52.78
71043;BME280;58696;52.134;5.500;2023-05-23T12:43:39;102496.75;;;16.83;52.19
71043;BME280;58696;52.134;5.500;2023-05-23T12:46:06;102504.91;;;16.36;54.32
71043;BME280;58696;52.134;5.500;2023-05-23T12:48:35;102504.72;;;16.67;56.30
71043;BME280;58696;52.134;5.500;2023-05-23T12:51:02;102506.53;;;16.67;54.28
71043;BME280;58696;52.134;5.500;2023-05-23T12:53:32;102505.47;;;17.12;52.40
71043;BME280;58696;52.134;5.500;2023-05-23T12:55:58;102505.34;;;17.63;52.79
71043;BME280;58696;52.134;5.500;2023-05-23T12:58:25;102504.25;;;17.08;48.38
71043;BME280;58696;52.134;5.500;2023-05-23T13:00:55;102499.63;;;16.74;51.79
71043;BME280;58696;52.134;5.500;2023-05-23T13:03:24;102504.84;;;16.74;51.84
71043;BME280;58696;52.134;5.500;2023-05-23T13:05:55;102498.47;;;16.76;54.71
71043;BME280;58696;52.134;5.500;2023-05-23T13:08:23;102506.28;;;16.76;52.04
71043;BME280;58696;52.134;5.500;2023-05-23T13:10:52;102497.84;;;16.00;51.47
71043;BME280;58696;52.134;5.500;2023-05-23T13:13:19;102509.50;;;15.82;53.87
71043;BME280;58696;52.134;5.500;2023-05-23T13:15:48;102504.81;;;16.00;54.02
71043;BME280;58696;52.134;5.500;2023-05-23T13:18:17;102498.66;;;16.45;54.76
71043;BME280;58696;52.134;5.500;2023-05-23T13:20:43;102506.16;;;16.70;52.29
71043;BME280;58696;52.134;5.500;2023-05-23T13:23:12;102505.47;;;16.76;53.06
71043;BME280;58696;52.134;5.500;2023-05-23T13:25:39;102504.97;;;17.02;51.76
71043;BME280;58696;52.134;5.500;2023-05-23T13:28:06;102496.47;;;17.29;48.72
71043;BME280;58696;52.134;5.500;2023-05-23T13:30:35;102502.69;;;16.77;49.77
71043;BME280;58696;52.134;5.500;2023-05-23T13:33:02;102511.28;;;16.04;51.66
71043;BME280;58696;52.134;5.500;2023-05-23T13:35:33;102515.97;;;15.86;53.59